sensor_id;sensor_type;location;lat;lon;timestamp;P1;durP1;ratioP1;P2;durP2;ratioP2
19651;SDS011;9974;52.146;14.668;2023-02-03T00:01:31;6.30;;;2.73;;
19651;SDS011;9974;52.146;14.668;2023-02-03T00:03:57;11.07;;;3.53;;
19651;SDS011;9974;52.146;14.668;2023-02-03T00:06:23;10.27;;;3.60;;
19651;SDS011;9974;52.146;14.668;2023-02-03T00:08:51;7.20;;;3.70;;
19651;SDS011;9974;52.146;14.668;2023-02-03T00:11:19;8.43;;;3.50;;
19651;SDS011;9974;52.146;14.668;2023-02-03T00:13:45;10.00;;;4.33;;
19651;SDS011;9974;52.146;14.668;2023-02-03T00:16:11;11.93;;;3.63;;
19651;SDS011;9974;52.146;14.668;2023-02-03T00:18:37;8.93;;;3.33;;
19651;SDS011;9974;52.146;14.668;2023-02-03T00:21:04;10.83;;;3.30;;
19651;SDS011;9974;52.146;14.668;2023-02-03T00:23:30;6.43;;;2.80;;
19651;SDS011;9974;52.146;14.668;2023-02-03T00:26:17;12.87;;;3.80;;
19651;SDS011;9974;52.146;14.668;2023-02-03T00:28:43;6.43;;;3.43;;
19651;SDS011;9974;52.146;14.668;2023-02-03T00:31:16;10.10;;;3.90;;
19651;SDS011;9974;52.146;14.668;2023-02-03T00:33:47;7.97;;;4.37;;
19651;SDS011;9974;52.146;14.668;2023-02-03T00:36:18;9.90;;;3.67;;
19651;SDS011;9974;52.146;14.668;2023-02-03T00:38:44;10.37;;;3.43;;
19651;SDS011;9974;52.146;14.668;2023-02-03T00:41:10;10.00;;;3.80;;
19651;SDS011;9974;52.146;14.668;2023-02-03T00:43:36;15.07;;;4.00;;
19651;SDS011;9974;52.146;14.668;2023-02-03T00:46:02;9.30;;;3.57;;
19651;SDS011;9974;52.146;14.668;2023-02-03T00:48:28;10.93;;;3.47;;
19651;SDS011;9974;52.146;14.668;2023-02-03T00:50:54;5.50;;;2.93;;
19651;SDS011;9974;52.146;14.668;2023-02-03T00:53:20;15.23;;;3.27;;
19651;SDS011;9974;52.146;14.668;2023-02-03T00:55:46;8.43;;;2.80;;
19651;SDS011;9974;52.146;14.668;2023-02-03T00:58:12;8.97;;;3.53;;
19651;SDS011;9974;52.146;14.668;2023-02-03T01:00:39;7.13;;;3.63;;
19651;SDS011;9974;52.146;14.668;2023-02-03T01:03:05;7.43;;;3.47;;
19651;SDS011;9974;52.146;14.668;2023-02-03T01:05:31;14.30;;;4.50;;
19651;SDS011;9974;52.146;14.668;2023-02-03T01:07:57;11.07;;;4.20;;
19651;SDS011;9974;52.146;14.668;2023-02-03T01:10:22;15.60;;;5.27;;
19651;SDS011;9974;52.146;14.668;2023-02-03T01:12:48;9.07;;;4.63;;
19651;SDS011;9974;52.146;14.668;2023-02-03T01:15:14;10.70;;;4.80;;
19651;SDS011;9974;52.146;14.668;2023-02-03T01:17:40;10.53;;;5.07;;
19651;SDS011;9974;52.146;14.668;2023-02-03T01:20:06;12.53;;;4.67;;
19651;SDS011;9974;52.146;14.668;2023-02-03T01:22:36;8.43;;;4.93;;
19651;SDS011;9974;52.146;14.668;2023-02-03T01:25:02;18.57;;;5.20;;
19651;SDS011;9974;52.146;14.668;2023-02-03T01:27:28;14.23;;;5.00;;
19651;SDS011;9974;52.146;14.668;2023-02-03T01:29:55;12.27;;;5.63;;
19651;SDS011;9974;52.146;14.668;2023-02-03T01:32:21;13.73;;;4.97;;
19651;SDS011;9974;52.146;14.668;2023-02-03T01:34:47;14.20;;;5.30;;
19651;SDS011;9974;52.146;14.668;2023-02-03T01:37:14;16.20;;;5.53;;
19651;SDS011;9974;52.146;14.668;2023-02-03T01:39:41;10.20;;;5.13;;
19651;SDS011;9974;52.146;14.668;2023-02-03T01:42:10;13.80;;;5.23;;
19651;SDS011;9974;52.146;14.668;2023-02-03T01:44:42;12.17;;;5.27;;
19651;SDS011;9974;52.146;14.668;2023-02-03T01:47:17;7.30;;;4.50;;
19651;SDS011;9974;52.146;14.668;2023-02-03T01:49:53;11.07;;;5.30;;
19651;SDS011;9974;52.146;14.668;2023-02-03T01:52:22;19.37;;;6.93;;
19651;SDS011;9974;52.146;14.668;2023-02-03T01:54:48;13.00;;;5.83;;
19651;SDS011;9974;52.146;14.668;2023-02-03T01:57:16;11.67;;;6.53;;
19651;SDS011;9974;52.146;14.668;2023-02-03T01:59:48;12.03;;;6.10;;
19651;SDS011;9974;52.146;14.668;2023-02-03T02:02:17;18.20;;;7.90;;
19651;SDS011;9974;52.146;14.668;2023-02-03T02:07:51;13.50;;;5.37;;
19651;SDS011;9974;52.146;14.668;2023-02-03T02:10:16;8.87;;;5.73;;
19651;SDS011;9974;52.146;14.668;2023-02-03T02:12:42;12.00;;;6.33;;
19651;SDS011;9974;52.146;14.668;2023-02-03T02:15:08;20.27;;;8.53;;
19651;SDS011;9974;52.146;14.668;2023-02-03T02:17:53;21.27;;;8.57;;
19651;SDS011;9974;52.146;14.668;2023-02-03T02:26:15;15.40;;;8.43;;
19651;SDS011;9974;52.146;14.668;2023-02-03T02:35:13;15.70;;;8.43;;
19651;SDS011;9974;52.146;14.668;2023-02-03T02:43:25;16.13;;;8.20;;
19651;SDS011;9974;52.146;14.668;2023-02-03T02:46:00;18.53;;;9.53;;
19651;SDS011;9974;52.146;14.668;2023-02-03T02:48:41;18.03;;;8.33;;
19651;SDS011;9974;52.146;14.668;2023-02-03T02:51:15;14.93;;;7.20;;
19651;SDS011;9974;52.146;14.668;2023-02-03T02:53:46;16.70;;;6.57;;
19651;SDS011;9974;52.146;14.668;2023-02-03T02:56:15;16.10;;;7.37;;
19651;SDS011;9974;52.146;14.668;2023-02-03T02:58:43;11.57;;;6.70;;
19651;SDS011;9974;52.146;14.668;2023-02-03T03:01:11;15.30;;;7.63;;
19651;SDS011;9974;52.146;14.668;2023-02-03T03:03:37;16.33;;;8.00;;
19651;SDS011;9974;52.146;14.668;2023-02-03T03:06:17;14.33;;;7.77;;
19651;SDS011;9974;52.146;14.668;2023-02-03T03:09:04;19.83;;;7.40;;
19651;SDS011;9974;52.146;14.668;2023-02-03T03:11:36;15.13;;;8.20;;
19651;SDS011;9974;52.146;14.668;2023-02-03T03:14:11;14.77;;;7.17;;
19651;SDS011;9974;52.146;14.668;2023-02-03T03:16:40;14.07;;;7.27;;
19651;SDS011;9974;52.146;14.668;2023-02-03T03:19:12;16.97;;;7.03;;
19651;SDS011;9974;52.146;14.668;2023-02-03T03:21:47;13.70;;;7.30;;
19651;SDS011;9974;52.146;14.668;2023-02-03T03:24:23;13.33;;;6.47;;
19651;SDS011;9974;52.146;14.668;2023-02-03T03:27:03;12.93;;;6.20;;
19651;SDS011;9974;52.146;14.668;2023-02-03T03:29:34;12.73;;;5.40;;
19651;SDS011;9974;52.146;14.668;2023-02-03T03:32:06;9.23;;;4.80;;
19651;SDS011;9974;52.146;14.668;2023-02-03T03:34:32;11.50;;;5.23;;
19651;SDS011;9974;52.146;14.668;2023-02-03T03:37:07;15.83;;;5.67;;
19651;SDS011;9974;52.146;14.668;2023-02-03T03:50:18;15.50;;;5.53;;
19651;SDS011;9974;52.146;14.668;2023-02-03T03:52:52;10.03;;;5.20;;
19651;SDS011;9974;52.146;14.668;2023-02-03T03:55:19;13.20;;;5.10;;
19651;SDS011;9974;52.146;14.668;2023-02-03T03:57:52;9.87;;;5.30;;
19651;SDS011;9974;52.146;14.668;2023-02-03T04:00:21;11.93;;;4.77;;
19651;SDS011;9974;52.146;14.668;2023-02-03T04:02:49;11.73;;;5.57;;
19651;SDS011;9974;52.146;14.668;2023-02-03T04:05:18;11.53;;;6.07;;
19651;SDS011;9974;52.146;14.668;2023-02-03T04:07:45;13.40;;;6.30;;
19651;SDS011;9974;52.146;14.668;2023-02-03T04:10:21;12.63;;;6.43;;
19651;SDS011;9974;52.146;14.668;2023-02-03T04:12:57;13.60;;;7.30;;
19651;SDS011;9974;52.146;14.668;2023-02-03T04:15:22;12.80;;;7.63;;
19651;SDS011;9974;52.146;14.668;2023-02-03T04:17:49;10.17;;;6.73;;
19651;SDS011;9974;52.146;14.668;2023-02-03T04:20:15;11.07;;;7.57;;
19651;SDS011;9974;52.146;14.668;2023-02-03T04:22:41;14.17;;;7.90;;
19651;SDS011;9974;52.146;14.668;2023-02-03T04:25:07;18.67;;;7.77;;
19651;SDS011;9974;52.146;14.668;2023-02-03T04:27:33;17.00;;;7.33;;
19651;SDS011;9974;52.146;14.668;2023-02-03T04:30:00;10.80;;;7.43;;
19651;SDS011;9974;52.146;14.668;2023-02-03T04:32:26;15.03;;;7.53;;
19651;SDS011;9974;52.146;14.668;2023-02-03T04:34:51;12.80;;;8.10;;
19651;SDS011;9974;52.146;14.668;2023-02-03T04:37:17;11.17;;;7.40;;
19651;SDS011;9974;52.146;14.668;2023-02-03T04:39:44;12.03;;;7.63;;
19651;SDS011;9974;52.146;14.668;2023-02-03T04:42:10;13.10;;;8.20;;
19651;SDS011;9974;52.146;14.668;2023-02-03T04:44:36;11.23;;;7.47;;
19651;SDS011;9974;52.146;14.668;2023-02-03T04:47:02;14.33;;;7.70;;
19651;SDS011;9974;52.146;14.668;2023-02-03T04:49:28;13.03;;;7.60;;
19651;SDS011;9974;52.146;14.668;2023-02-03T04:51:54;9.90;;;6.03;;
19651;SDS011;9974;52.146;14.668;2023-02-03T04:54:20;10.80;;;7.17;;
19651;SDS011;9974;52.146;14.668;2023-02-03T04:56:46;13.60;;;8.37;;
19651;SDS011;9974;52.146;14.668;2023-02-03T04:59:12;11.20;;;7.97;;
19651;SDS011;9974;52.146;14.668;2023-02-03T05:01:38;13.37;;;7.77;;
19651;SDS011;9974;52.146;14.668;2023-02-03T05:04:04;16.30;;;9.70;;
19651;SDS011;9974;52.146;14.668;2023-02-03T05:06:30;14.23;;;8.97;;
19651;SDS011;9974;52.146;14.668;2023-02-03T05:08:57;11.73;;;8.40;;
19651;SDS011;9974;52.146;14.668;2023-02-03T05:11:23;15.00;;;9.57;;
19651;SDS011;9974;52.146;14.668;2023-02-03T05:13:49;13.60;;;9.13;;
19651;SDS011;9974;52.146;14.668;2023-02-03T05:16:15;13.33;;;8.83;;
19651;SDS011;9974;52.146;14.668;2023-02-03T05:18:42;15.23;;;9.97;;
19651;SDS011;9974;52.146;14.668;2023-02-03T05:21:08;14.20;;;9.83;;
19651;SDS011;9974;52.146;14.668;2023-02-03T05:23:33;12.90;;;8.37;;
19651;SDS011;9974;52.146;14.668;2023-02-03T05:25:59;12.67;;;8.37;;
19651;SDS011;9974;52.146;14.668;2023-02-03T05:28:25;12.87;;;8.77;;
19651;SDS011;9974;52.146;14.668;2023-02-03T05:30:51;12.07;;;8.43;;
19651;SDS011;9974;52.146;14.668;2023-02-03T05:33:17;10.67;;;7.33;;
19651;SDS011;9974;52.146;14.668;2023-02-03T05:35:44;9.23;;;5.83;;
19651;SDS011;9974;52.146;14.668;2023-02-03T05:38:10;10.57;;;4.97;;
19651;SDS011;9974;52.146;14.668;2023-02-03T05:40:36;6.60;;;5.03;;
19651;SDS011;9974;52.146;14.668;2023-02-03T05:43:20;7.33;;;4.03;;
19651;SDS011;9974;52.146;14.668;2023-02-03T05:45:46;7.03;;;4.93;;
19651;SDS011;9974;52.146;14.668;2023-02-03T05:48:12;6.93;;;5.30;;
19651;SDS011;9974;52.146;14.668;2023-02-03T05:50:38;6.87;;;4.70;;
19651;SDS011;9974;52.146;14.668;2023-02-03T05:53:05;7.17;;;5.50;;
19651;SDS011;9974;52.146;14.668;2023-02-03T05:55:32;7.63;;;5.30;;
19651;SDS011;9974;52.146;14.668;2023-02-03T05:57:58;6.60;;;5.23;;
19651;SDS011;9974;52.146;14.668;2023-02-03T06:00:25;6.77;;;5.63;;
19651;SDS011;9974;52.146;14.668;2023-02-03T06:02:52;9.20;;;5.57;;
19651;SDS011;9974;52.146;14.668;2023-02-03T06:05:19;7.47;;;6.13;;
19651;SDS011;9974;52.146;14.668;2023-02-03T06:07:45;8.83;;;6.07;;
19651;SDS011;9974;52.146;14.668;2023-02-03T06:10:12;8.63;;;6.10;;
19651;SDS011;9974;52.146;14.668;2023-02-03T06:12:38;7.53;;;6.00;;
19651;SDS011;9974;52.146;14.668;2023-02-03T06:15:04;9.73;;;5.77;;
19651;SDS011;9974;52.146;14.668;2023-02-03T06:17:30;9.17;;;5.77;;
19651;SDS011;9974;52.146;14.668;2023-02-03T06:19:56;9.37;;;6.50;;
19651;SDS011;9974;52.146;14.668;2023-02-03T06:22:22;9.20;;;6.33;;
19651;SDS011;9974;52.146;14.668;2023-02-03T06:24:48;8.27;;;6.40;;
19651;SDS011;9974;52.146;14.668;2023-02-03T06:27:14;8.80;;;6.63;;
19651;SDS011;9974;52.146;14.668;2023-02-03T06:29:41;10.27;;;7.43;;
19651;SDS011;9974;52.146;14.668;2023-02-03T06:32:07;10.83;;;7.57;;
19651;SDS011;9974;52.146;14.668;2023-02-03T06:34:33;18.07;;;10.10;;
19651;SDS011;9974;52.146;14.668;2023-02-03T06:36:59;19.33;;;10.50;;
19651;SDS011;9974;52.146;14.668;2023-02-03T06:39:26;12.53;;;9.23;;
19651;SDS011;9974;52.146;14.668;2023-02-03T06:41:52;14.70;;;10.30;;
19651;SDS011;9974;52.146;14.668;2023-02-03T06:44:19;17.77;;;12.43;;
19651;SDS011;9974;52.146;14.668;2023-02-03T06:46:45;19.60;;;11.70;;
19651;SDS011;9974;52.146;14.668;2023-02-03T06:49:12;16.40;;;12.40;;
19651;SDS011;9974;52.146;14.668;2023-02-03T06:51:38;22.40;;;13.10;;
19651;SDS011;9974;52.146;14.668;2023-02-03T06:54:04;18.93;;;13.13;;
19651;SDS011;9974;52.146;14.668;2023-02-03T06:56:30;21.77;;;14.60;;
19651;SDS011;9974;52.146;14.668;2023-02-03T06:58:56;21.53;;;14.23;;
19651;SDS011;9974;52.146;14.668;2023-02-03T07:01:22;28.20;;;17.23;;
19651;SDS011;9974;52.146;14.668;2023-02-03T07:03:49;33.83;;;17.37;;
19651;SDS011;9974;52.146;14.668;2023-02-03T07:06:15;30.23;;;17.83;;
19651;SDS011;9974;52.146;14.668;2023-02-03T07:08:42;27.80;;;16.83;;
19651;SDS011;9974;52.146;14.668;2023-02-03T07:11:08;50.17;;;28.73;;
19651;SDS011;9974;52.146;14.668;2023-02-03T07:13:34;37.50;;;22.73;;
19651;SDS011;9974;52.146;14.668;2023-02-03T07:15:59;30.03;;;18.07;;
19651;SDS011;9974;52.146;14.668;2023-02-03T07:18:25;31.97;;;17.93;;
19651;SDS011;9974;52.146;14.668;2023-02-03T07:20:51;32.33;;;18.30;;
19651;SDS011;9974;52.146;14.668;2023-02-03T07:23:18;34.93;;;18.40;;
19651;SDS011;9974;52.146;14.668;2023-02-03T07:25:43;35.43;;;18.13;;
19651;SDS011;9974;52.146;14.668;2023-02-03T07:28:10;33.33;;;19.23;;
19651;SDS011;9974;52.146;14.668;2023-02-03T07:30:36;32.03;;;19.23;;
19651;SDS011;9974;52.146;14.668;2023-02-03T07:33:02;31.30;;;18.43;;
19651;SDS011;9974;52.146;14.668;2023-02-03T07:35:28;37.07;;;18.20;;
19651;SDS011;9974;52.146;14.668;2023-02-03T07:37:54;37.87;;;18.93;;
19651;SDS011;9974;52.146;14.668;2023-02-03T07:40:20;34.83;;;18.77;;
19651;SDS011;9974;52.146;14.668;2023-02-03T07:42:47;29.30;;;16.20;;
19651;SDS011;9974;52.146;14.668;2023-02-03T07:45:14;37.37;;;19.10;;
19651;SDS011;9974;52.146;14.668;2023-02-03T07:47:41;33.20;;;17.37;;
19651;SDS011;9974;52.146;14.668;2023-02-03T07:50:08;33.93;;;16.17;;
19651;SDS011;9974;52.146;14.668;2023-02-03T07:52:37;34.17;;;19.20;;
19651;SDS011;9974;52.146;14.668;2023-02-03T07:55:03;33.90;;;18.17;;
19651;SDS011;9974;52.146;14.668;2023-02-03T07:57:29;31.10;;;17.43;;
19651;SDS011;9974;52.146;14.668;2023-02-03T07:59:55;28.70;;;17.77;;
19651;SDS011;9974;52.146;14.668;2023-02-03T08:02:21;32.87;;;18.37;;
19651;SDS011;9974;52.146;14.668;2023-02-03T08:04:47;38.53;;;22.37;;
19651;SDS011;9974;52.146;14.668;2023-02-03T08:07:13;36.80;;;18.97;;
19651;SDS011;9974;52.146;14.668;2023-02-03T08:09:39;30.93;;;18.83;;
19651;SDS011;9974;52.146;14.668;2023-02-03T08:12:05;31.10;;;18.03;;
19651;SDS011;9974;52.146;14.668;2023-02-03T08:14:31;26.70;;;16.27;;
19651;SDS011;9974;52.146;14.668;2023-02-03T08:16:57;27.03;;;14.73;;
19651;SDS011;9974;52.146;14.668;2023-02-03T08:19:22;31.47;;;16.60;;
19651;SDS011;9974;52.146;14.668;2023-02-03T08:21:48;27.33;;;16.10;;
19651;SDS011;9974;52.146;14.668;2023-02-03T08:24:15;28.07;;;17.93;;
19651;SDS011;9974;52.146;14.668;2023-02-03T08:26:41;29.83;;;17.93;;
19651;SDS011;9974;52.146;14.668;2023-02-03T08:29:07;27.20;;;16.33;;
19651;SDS011;9974;52.146;14.668;2023-02-03T08:31:33;31.83;;;17.17;;
19651;SDS011;9974;52.146;14.668;2023-02-03T08:33:59;28.73;;;16.73;;
19651;SDS011;9974;52.146;14.668;2023-02-03T08:36:25;38.63;;;19.83;;
19651;SDS011;9974;52.146;14.668;2023-02-03T08:38:50;32.67;;;18.50;;
19651;SDS011;9974;52.146;14.668;2023-02-03T08:41:17;32.30;;;18.27;;
19651;SDS011;9974;52.146;14.668;2023-02-03T08:43:44;31.17;;;17.97;;
19651;SDS011;9974;52.146;14.668;2023-02-03T08:46:10;37.00;;;20.43;;
19651;SDS011;9974;52.146;14.668;2023-02-03T08:48:37;27.27;;;18.00;;
19651;SDS011;9974;52.146;14.668;2023-02-03T08:51:11;28.43;;;15.70;;
19651;SDS011;9974;52.146;14.668;2023-02-03T08:53:38;26.67;;;17.13;;
19651;SDS011;9974;52.146;14.668;2023-02-03T08:56:05;26.90;;;16.67;;
19651;SDS011;9974;52.146;14.668;2023-02-03T08:58:32;27.10;;;17.57;;
19651;SDS011;9974;52.146;14.668;2023-02-03T09:01:08;26.17;;;15.63;;
19651;SDS011;9974;52.146;14.668;2023-02-03T09:03:37;28.67;;;17.43;;
19651;SDS011;9974;52.146;14.668;2023-02-03T09:06:03;27.63;;;15.13;;
19651;SDS011;9974;52.146;14.668;2023-02-03T09:08:31;23.93;;;13.43;;
19651;SDS011;9974;52.146;14.668;2023-02-03T09:10:57;25.67;;;15.97;;
19651;SDS011;9974;52.146;14.668;2023-02-03T09:13:23;24.87;;;14.93;;
19651;SDS011;9974;52.146;14.668;2023-02-03T09:15:49;21.33;;;13.33;;
19651;SDS011;9974;52.146;14.668;2023-02-03T09:18:15;20.67;;;12.83;;
19651;SDS011;9974;52.146;14.668;2023-02-03T09:20:41;21.67;;;14.20;;
19651;SDS011;9974;52.146;14.668;2023-02-03T09:23:06;17.57;;;12.77;;
19651;SDS011;9974;52.146;14.668;2023-02-03T09:25:32;24.47;;;13.33;;
19651;SDS011;9974;52.146;14.668;2023-02-03T09:28:01;19.23;;;11.70;;
19651;SDS011;9974;52.146;14.668;2023-02-03T09:30:27;19.93;;;12.83;;
19651;SDS011;9974;52.146;14.668;2023-02-03T09:32:53;23.60;;;12.43;;
19651;SDS011;9974;52.146;14.668;2023-02-03T09:35:20;16.17;;;8.67;;
19651;SDS011;9974;52.146;14.668;2023-02-03T09:37:46;19.33;;;13.33;;
19651;SDS011;9974;52.146;14.668;2023-02-03T09:40:17;18.87;;;11.17;;
19651;SDS011;9974;52.146;14.668;2023-02-03T09:43:10;14.97;;;11.03;;
19651;SDS011;9974;52.146;14.668;2023-02-03T09:45:52;21.37;;;12.13;;
19651;SDS011;9974;52.146;14.668;2023-02-03T09:48:20;23.87;;;12.03;;
19651;SDS011;9974;52.146;14.668;2023-02-03T09:50:48;14.83;;;10.43;;
19651;SDS011;9974;52.146;14.668;2023-02-03T09:55:56;12.77;;;8.87;;
19651;SDS011;9974;52.146;14.668;2023-02-03T09:58:23;16.40;;;9.97;;
19651;SDS011;9974;52.146;14.668;2023-02-03T10:01:01;17.10;;;9.73;;
19651;SDS011;9974;52.146;14.668;2023-02-03T10:03:37;14.47;;;9.10;;
19651;SDS011;9974;52.146;14.668;2023-02-03T10:06:22;11.10;;;7.93;;
19651;SDS011;9974;52.146;14.668;2023-02-03T10:09:00;12.30;;;7.97;;
19651;SDS011;9974;52.146;14.668;2023-02-03T10:12:09;11.33;;;8.07;;
19651;SDS011;9974;52.146;14.668;2023-02-03T10:17:40;13.70;;;9.40;;
19651;SDS011;9974;52.146;14.668;2023-02-03T10:20:17;11.80;;;8.60;;
19651;SDS011;9974;52.146;14.668;2023-02-03T10:22:55;13.47;;;9.10;;
19651;SDS011;9974;52.146;14.668;2023-02-03T10:25:32;13.07;;;8.97;;
19651;SDS011;9974;52.146;14.668;2023-02-03T10:28:08;13.50;;;7.67;;
19651;SDS011;9974;52.146;14.668;2023-02-03T10:30:47;11.30;;;7.10;;
19651;SDS011;9974;52.146;14.668;2023-02-03T10:33:15;8.10;;;5.80;;
19651;SDS011;9974;52.146;14.668;2023-02-03T10:38:52;9.70;;;5.57;;
19651;SDS011;9974;52.146;14.668;2023-02-03T10:41:19;9.47;;;6.57;;
19651;SDS011;9974;52.146;14.668;2023-02-03T10:43:46;7.97;;;5.87;;
19651;SDS011;9974;52.146;14.668;2023-02-03T10:46:26;8.07;;;5.63;;
19651;SDS011;9974;52.146;14.668;2023-02-03T10:48:53;8.03;;;5.40;;
19651;SDS011;9974;52.146;14.668;2023-02-03T10:51:21;5.60;;;4.43;;
19651;SDS011;9974;52.146;14.668;2023-02-03T10:53:50;8.37;;;5.80;;
19651;SDS011;9974;52.146;14.668;2023-02-03T10:56:20;8.83;;;5.27;;
19651;SDS011;9974;52.146;14.668;2023-02-03T10:58:58;7.27;;;4.77;;
19651;SDS011;9974;52.146;14.668;2023-02-03T11:01:43;6.30;;;4.77;;
19651;SDS011;9974;52.146;14.668;2023-02-03T11:06:59;7.10;;;3.97;;
19651;SDS011;9974;52.146;14.668;2023-02-03T11:14:43;4.60;;;3.37;;
19651;SDS011;9974;52.146;14.668;2023-02-03T11:17:20;4.93;;;2.87;;
19651;SDS011;9974;52.146;14.668;2023-02-03T11:19:48;3.50;;;2.50;;
19651;SDS011;9974;52.146;14.668;2023-02-03T11:22:32;3.17;;;2.33;;
19651;SDS011;9974;52.146;14.668;2023-02-03T11:25:03;10.00;;;3.30;;
19651;SDS011;9974;52.146;14.668;2023-02-03T11:27:44;4.30;;;2.30;;
19651;SDS011;9974;52.146;14.668;2023-02-03T11:30:14;8.87;;;2.13;;
19651;SDS011;9974;52.146;14.668;2023-02-03T11:32:46;4.13;;;1.30;;
19651;SDS011;9974;52.146;14.668;2023-02-03T11:35:17;5.27;;;1.80;;
19651;SDS011;9974;52.146;14.668;2023-02-03T11:37:51;5.67;;;1.53;;
19651;SDS011;9974;52.146;14.668;2023-02-03T11:40:23;5.70;;;1.80;;
19651;SDS011;9974;52.146;14.668;2023-02-03T11:48:14;10.93;;;2.27;;
19651;SDS011;9974;52.146;14.668;2023-02-03T11:58:58;17.13;;;2.43;;
19651;SDS011;9974;52.146;14.668;2023-02-03T12:02:30;8.53;;;2.00;;
19651;SDS011;9974;52.146;14.668;2023-02-03T12:13:48;19.23;;;4.22;;
19651;SDS011;9974;52.146;14.668;2023-02-03T12:16:41;17.48;;;3.13;;
19651;SDS011;9974;52.146;14.668;2023-02-03T12:19:48;11.52;;;3.45;;
19651;SDS011;9974;52.146;14.668;2023-02-03T12:25:21;13.20;;;2.78;;
19651;SDS011;9974;52.146;14.668;2023-02-03T12:31:03;14.48;;;2.75;;
19651;SDS011;9974;52.146;14.668;2023-02-03T12:33:48;15.32;;;2.72;;
19651;SDS011;9974;52.146;14.668;2023-02-03T12:36:26;20.45;;;3.10;;
19651;SDS011;9974;52.146;14.668;2023-02-03T12:41:25;13.65;;;3.38;;
19651;SDS011;9974;52.146;14.668;2023-02-03T12:43:59;8.73;;;2.55;;
19651;SDS011;9974;52.146;14.668;2023-02-03T12:46:40;18.17;;;3.40;;
19651;SDS011;9974;52.146;14.668;2023-02-03T12:54:31;9.13;;;2.17;;
19651;SDS011;9974;52.146;14.668;2023-02-03T13:03:15;19.42;;;2.60;;
19651;SDS011;9974;52.146;14.668;2023-02-03T13:06:03;11.98;;;3.65;;
19651;SDS011;9974;52.146;14.668;2023-02-03T13:08:38;14.02;;;2.70;;
19651;SDS011;9974;52.146;14.668;2023-02-03T13:11:28;12.38;;;3.08;;
19651;SDS011;9974;52.146;14.668;2023-02-03T13:14:04;10.18;;;2.78;;
19651;SDS011;9974;52.146;14.668;2023-02-03T13:16:47;9.10;;;2.28;;
19651;SDS011;9974;52.146;14.668;2023-02-03T13:19:23;17.50;;;3.05;;
19651;SDS011;9974;52.146;14.668;2023-02-03T13:21:53;16.48;;;3.53;;
19651;SDS011;9974;52.146;14.668;2023-02-03T13:24:19;12.27;;;3.22;;
19651;SDS011;9974;52.146;14.668;2023-02-03T13:26:52;18.45;;;3.75;;
19651;SDS011;9974;52.146;14.668;2023-02-03T13:38:02;16.98;;;3.58;;
19651;SDS011;9974;52.146;14.668;2023-02-03T13:43:44;13.00;;;2.30;;
19651;SDS011;9974;52.146;14.668;2023-02-03T13:46:26;9.98;;;1.70;;
19651;SDS011;9974;52.146;14.668;2023-02-03T13:48:58;4.30;;;1.38;;
19651;SDS011;9974;52.146;14.668;2023-02-03T13:51:31;11.80;;;2.33;;
19651;SDS011;9974;52.146;14.668;2023-02-03T13:54:07;10.77;;;2.30;;
19651;SDS011;9974;52.146;14.668;2023-02-03T13:56:59;6.70;;;2.17;;
19651;SDS011;9974;52.146;14.668;2023-02-03T13:59:40;14.83;;;2.40;;
19651;SDS011;9974;52.146;14.668;2023-02-03T14:10:12;17.40;;;3.07;;
19651;SDS011;9974;52.146;14.668;2023-02-03T14:17:55;17.50;;;2.97;;
19651;SDS011;9974;52.146;14.668;2023-02-03T14:22:53;18.60;;;3.87;;
19651;SDS011;9974;52.146;14.668;2023-02-03T14:25:24;20.83;;;3.90;;
19651;SDS011;9974;52.146;14.668;2023-02-03T14:28:07;20.47;;;4.03;;
19651;SDS011;9974;52.146;14.668;2023-02-03T14:34:16;17.33;;;4.07;;
19651;SDS011;9974;52.146;14.668;2023-02-03T14:36:45;17.73;;;2.73;;
19651;SDS011;9974;52.146;14.668;2023-02-03T14:41:48;15.53;;;3.00;;
19651;SDS011;9974;52.146;14.668;2023-02-03T14:45:09;12.83;;;3.50;;
19651;SDS011;9974;52.146;14.668;2023-02-03T14:47:41;19.63;;;5.07;;
19651;SDS011;9974;52.146;14.668;2023-02-03T14:55:45;20.97;;;4.17;;
19651;SDS011;9974;52.146;14.668;2023-02-03T14:58:31;16.93;;;3.77;;
19651;SDS011;9974;52.146;14.668;2023-02-03T15:01:23;29.73;;;5.30;;
19651;SDS011;9974;52.146;14.668;2023-02-03T15:06:39;22.43;;;4.17;;
19651;SDS011;9974;52.146;14.668;2023-02-03T15:09:23;22.53;;;5.37;;
19651;SDS011;9974;52.146;14.668;2023-02-03T15:11:57;29.10;;;3.97;;
19651;SDS011;9974;52.146;14.668;2023-02-03T15:16:56;32.87;;;6.17;;
19651;SDS011;9974;52.146;14.668;2023-02-03T15:19:47;24.67;;;5.53;;
19651;SDS011;9974;52.146;14.668;2023-02-03T15:22:17;29.43;;;5.27;;
19651;SDS011;9974;52.146;14.668;2023-02-03T15:24:44;33.10;;;9.97;;
19651;SDS011;9974;52.146;14.668;2023-02-03T15:27:24;21.97;;;6.43;;
19651;SDS011;9974;52.146;14.668;2023-02-03T15:29:52;29.20;;;5.30;;
19651;SDS011;9974;52.146;14.668;2023-02-03T15:32:28;28.50;;;5.77;;
19651;SDS011;9974;52.146;14.668;2023-02-03T15:34:57;20.43;;;4.33;;
19651;SDS011;9974;52.146;14.668;2023-02-03T15:37:36;23.93;;;4.30;;
19651;SDS011;9974;52.146;14.668;2023-02-03T15:40:20;26.70;;;6.23;;
19651;SDS011;9974;52.146;14.668;2023-02-03T15:45:37;25.67;;;4.77;;
19651;SDS011;9974;52.146;14.668;2023-02-03T15:48:24;22.90;;;4.20;;
19651;SDS011;9974;52.146;14.668;2023-02-03T15:51:04;25.43;;;5.57;;
19651;SDS011;9974;52.146;14.668;2023-02-03T15:53:34;23.83;;;5.50;;
19651;SDS011;9974;52.146;14.668;2023-02-03T15:56:21;20.53;;;4.40;;
19651;SDS011;9974;52.146;14.668;2023-02-03T15:59:04;23.03;;;4.73;;
19651;SDS011;9974;52.146;14.668;2023-02-03T16:01:43;23.43;;;5.07;;
19651;SDS011;9974;52.146;14.668;2023-02-03T16:04:09;29.13;;;5.57;;
19651;SDS011;9974;52.146;14.668;2023-02-03T16:06:36;32.17;;;6.40;;
19651;SDS011;9974;52.146;14.668;2023-02-03T16:09:05;26.20;;;5.53;;
19651;SDS011;9974;52.146;14.668;2023-02-03T16:14:04;30.03;;;6.40;;
19651;SDS011;9974;52.146;14.668;2023-02-03T16:16:50;28.50;;;4.83;;
19651;SDS011;9974;52.146;14.668;2023-02-03T16:19:21;25.33;;;5.23;;
19651;SDS011;9974;52.146;14.668;2023-02-03T16:29:51;24.43;;;5.30;;
19651;SDS011;9974;52.146;14.668;2023-02-03T16:32:38;27.13;;;5.83;;
19651;SDS011;9974;52.146;14.668;2023-02-03T16:35:22;29.70;;;5.73;;
19651;SDS011;9974;52.146;14.668;2023-02-03T16:38:13;37.67;;;5.70;;
19651;SDS011;9974;52.146;14.668;2023-02-03T16:40:59;31.13;;;5.40;;
19651;SDS011;9974;52.146;14.668;2023-02-03T16:43:44;20.43;;;5.07;;
19651;SDS011;9974;52.146;14.668;2023-02-03T16:46:28;22.87;;;4.70;;
19651;SDS011;9974;52.146;14.668;2023-02-03T16:49:12;23.87;;;5.63;;
19651;SDS011;9974;52.146;14.668;2023-02-03T16:51:56;19.40;;;5.20;;
19651;SDS011;9974;52.146;14.668;2023-02-03T16:54:22;19.13;;;4.50;;
19651;SDS011;9974;52.146;14.668;2023-02-03T16:56:48;27.07;;;5.57;;
19651;SDS011;9974;52.146;14.668;2023-02-03T16:59:16;26.03;;;5.60;;
19651;SDS011;9974;52.146;14.668;2023-02-03T17:01:42;19.00;;;4.33;;
19651;SDS011;9974;52.146;14.668;2023-02-03T17:04:08;20.83;;;4.83;;
19651;SDS011;9974;52.146;14.668;2023-02-03T17:06:36;22.80;;;4.90;;
19651;SDS011;9974;52.146;14.668;2023-02-03T17:09:02;17.50;;;3.60;;
19651;SDS011;9974;52.146;14.668;2023-02-03T17:11:29;28.63;;;4.83;;
19651;SDS011;9974;52.146;14.668;2023-02-03T17:13:55;22.97;;;5.80;;
19651;SDS011;9974;52.146;14.668;2023-02-03T17:16:22;23.00;;;4.57;;
19651;SDS011;9974;52.146;14.668;2023-02-03T17:18:49;17.60;;;4.43;;
19651;SDS011;9974;52.146;14.668;2023-02-03T17:21:17;16.63;;;3.50;;
19651;SDS011;9974;52.146;14.668;2023-02-03T17:23:47;20.27;;;3.87;;